Date,TemperatureHighF,TemperatureAvgF,TemperatureLowF,DewpointHighF,DewpointAvgF,DewpointLowF,HumidityHigh,HumidityAvg,HumidityLow,PressureMaxIn,PressureMinIn,WindSpeedMaxMPH,WindSpeedAvgMPH,GustSpeedMaxMPH,PrecipitationSumIn
2013-1-1,26.6,17.0,8.1,20.2,12.0,4.6,90,81,57,30.36,30.21,0,0,0,0.00
2013-1-2,36.9,22.4,7.5,26.1,16.2,3.8,90,78,58,30.30,30.15,3,0,9,0.00
2013-1-3,43.3,28.7,19.8,29.5,23.0,17.1,94,80,54,30.46,30.30,2,0,5,0.01
2013-1-4,43.9,28.3,13.3,29.2,21.9,11.2,94,78,53,30.44,30.26,4,1,11,0.00
2013-1-5,45.3,36.7,28.8,34.9,29.0,23.3,81,74,62,30.27,30.09,7,1,16,0.00
2013-1-6,42.6,31.2,22.5,24.6,21.5,18.4,84,68,44,30.43,30.22,4,0,8,0.00
2013-1-7,50.2,37.9,27.9,29.1,25.1,21.0,77,61,40,30.31,30.07,8,2,17,0.00
2013-1-8,56.1,43.5,32.4,34.8,31.6,26.6,82,64,43,30.24,30.00,9,2,16,0.00
2013-1-9,53.6,38.2,25.3,37.7,30.7,23.3,92,76,50,30.46,30.25,2,0,5,0.00
2013-1-10,50.0,44.1,39.4,49.7,40.4,29.0,99,88,49,30.36,29.76,6,2,14,0.69
2013-1-11,60.3,54.4,50.0,50.6,47.8,28.3,99,80,37,29.79,29.61,8,3,24,0.00
2013-1-12,53.1,30.4,21.9,34.4,19.6,12.0,82,64,37,30.14,29.79,2,1,9,0.00
2013-1-13,30.0,20.3,13.1,13.3,9.1,5.7,75,62,45,30.40,30.11,2,0,8,0.00
2013-1-14,36.7,20.3,8.2,17.3,10.2,4.6,87,66,37,30.55,30.39,3,0,8,0.00
2013-1-15,37.8,22.8,12.6,19.6,12.4,9.3,89,66,38,30.44,30.21,3,0,6,0.00
2013-1-16,47.1,29.6,14.2,29.9,20.4,9.4,89,70,42,30.25,30.06,4,1,9,0.00
2013-1-17,52.0,37.4,26.2,34.2,29.2,24.3,94,74,45,30.52,30.24,2,0,5,0.00
2013-1-18,57.7,44.4,31.5,33.8,30.5,26.8,84,60,38,30.43,30.06,10,3,21,0.00
2013-1-19,63.0,47.4,37.8,35.8,31.2,27.2,78,56,31,30.29,30.02,5,1,12,0.00
2013-1-20,40.5,30.6,20.3,29.9,14.9,10.6,72,53,34,30.44,30.29,4,0,8,0.00
2013-1-21,24.8,19.2,14.2,13.5,8.0,2.4,82,62,39,30.49,30.40,2,0,6,0.00
2013-1-22,30.4,21.9,14.0,11.3,8.3,4.5,67,56,37,30.44,30.29,4,1,11,0.00
2013-1-23,50.4,30.2,12.6,25.7,17.3,8.3,85,61,36,30.46,30.20,2,0,6,0.00
2013-1-24,27.3,21.9,11.3,16.0,6.8,1.2,70,53,37,30.54,30.20,6,2,16,0.00
2013-1-25,47.5,33.5,18.9,22.7,17.4,10.6,72,53,34,30.29,30.19,3,0,7,0.00
2013-1-26,57.6,42.6,26.8,27.6,24.2,19.0,78,52,26,30.32,30.11,5,1,11,0.00
2013-1-27,59.7,50.8,40.5,55.7,45.7,27.6,91,83,47,30.12,29.77,10,3,21,0.11
2013-1-28,75.9,64.4,51.8,62.3,56.6,48.8,92,77,53,29.89,29.68,8,3,21,0.00
2013-1-29,69.3,48.3,35.8,62.5,46.1,35.5,99,93,77,29.73,29.45,10,2,22,0.79
2013-1-30,35.8,28.0,21.4,35.5,23.6,16.7,99,84,70,30.02,29.55,2,0,7,0.04
2013-1-31,29.1,18.9,7.3,20.6,11.2,1.9,89,72,55,30.52,29.98,0,0,0,0.00
2013-2-1,27.7,18.4,6.1,16.6,9.1,2.1,84,68,52,30.51,30.18,0,0,0,0.00
2013-2-2,50.7,37.5,24.1,35.4,27.2,16.1,80,67,48,30.26,30.12,2,0,7,0.00
2013-2-3,49.6,41.7,31.5,31.4,25.7,16.5,83,56,28,30.32,29.88,4,1,11,0.00
2013-2-4,53.4,39.1,23.4,34.4,28.4,20.5,90,67,47,30.03,29.83,5,0,10,0.00
2013-2-5,60.3,38.9,21.2,36.5,28.0,18.9,95,69,38,30.14,29.94,2,0,10,0.00
2013-2-6,62.6,47.9,28.2,43.6,34.4,24.1,89,62,35,30.14,29.91,7,2,16,0.00
2013-2-7,53.1,47.0,41.4,47.5,42.9,36.6,98,86,62,30.11,29.90,4,1,8,0.87
2013-2-8,48.0,37.3,30.7,36.7,29.8,26.9,89,75,57,30.38,30.12,4,1,11,0.87
2013-2-9,49.3,38.7,30.2,38.5,32.5,27.4,91,79,56,30.26,29.78,8,3,15,0.04
2013-2-10,55.6,45.6,37.6,47.4,35.9,25.0,98,71,47,29.97,29.51,11,4,27,0.07
2013-2-11,50.4,38.5,28.8,29.4,25.5,21.6,76,61,40,30.22,29.96,3,1,10,0.00
2013-2-12,43.2,32.5,23.0,30.4,24.8,19.5,90,74,51,30.22,30.00,2,0,4,0.00
2013-2-13,58.5,40.9,24.6,31.8,26.3,21.6,90,60,29,30.00,29.84,4,1,10,0.00
2013-2-14,55.4,42.2,30.9,36.6,28.4,23.6,80,59,38,30.23,29.88,2,0,8,0.00
2013-2-15,44.4,32.4,19.9,27.5,18.4,10.4,93,59,27,30.43,30.23,2,1,9,0.00
2013-2-16,36.5,29.5,17.4,25.7,21.5,15.5,94,73,53,30.36,30.10,4,1,11,0.02
2013-2-17,59.2,44.7,25.7,35.0,28.4,20.1,80,55,38,30.10,29.70,7,2,14,0.00
2013-2-18,57.6,45.0,28.2,46.9,33.0,17.4,78,63,44,30.14,29.57,8,3,21,0.00
2013-2-19,39.7,28.8,20.7,19.0,11.6,2.0,77,51,24,30.40,30.13,3,0,9,0.00
2013-2-20,27.0,22.0,16.5,14.6,8.7,4.2,66,56,49,30.42,30.20,7,1,13,0.00
2013-2-21,27.1,24.1,20.8,25.9,20.6,14.2,96,87,66,30.22,29.80,11,2,22,0.00
2013-2-22,36.1,24.3,11.7,23.7,19.1,9.1,96,81,55,30.12,29.83,2,0,8,0.14
2013-2-23,36.9,20.8,6.4,21.5,13.6,4.0,91,75,49,30.12,29.98,4,0,8,0.00
2013-2-24,52.7,32.4,11.3,29.1,21.5,8.8,91,67,36,30.06,29.93,5,1,12,0.00
2013-2-25,37.2,33.8,30.0,33.8,28.9,25.1,99,82,70,30.00,29.71,3,1,11,0.08
2013-2-26,36.7,33.0,31.1,35.5,32.0,30.1,99,96,87,29.91,29.64,2,0,6,0.12
2013-2-27,38.5,33.3,29.3,30.3,28.4,25.2,98,83,67,30.10,29.89,2,0,8,0.19
2013-2-28,34.7,31.8,28.9,28.5,26.3,24.4,85,80,72,30.25,30.09,3,0,9,0.04
2013-3-1,35.4,28.4,21.7,26.3,22.5,18.2,86,78,67,30.36,30.22,2,0,9,0.01
2013-3-2,40.8,29.0,21.4,23.8,20.2,17.6,88,70,47,30.40,30.22,3,0,5,0.00
2013-3-3,47.1,37.1,25.2,29.3,25.3,19.5,80,63,46,30.22,29.77,6,2,14,0.00
2013-3-4,46.4,39.8,35.8,32.4,29.8,28.5,75,67,57,29.77,29.71,4,2,11,0.00
2013-3-5,37.9,33.0,29.5,31.1,29.1,26.9,98,86,68,30.34,30.14,2,0,5,0.20
2013-3-6,34.9,32.4,28.9,28.5,26.5,24.4,84,79,70,30.53,30.34,2,1,5,0.04
2013-3-7,34.9,29.5,24.4,25.8,23.5,19.2,83,78,66,30.62,30.51,2,0,5,0.01
2013-3-8,40.1,28.3,21.6,23.9,19.9,17.7,88,72,48,30.69,30.56,2,0,4,0.00
2013-3-9,57.2,40.3,25.3,56.5,32.4,19.4,99,75,46,30.55,29.92,4,1,9,0.85
2013-3-10,53.4,39.5,27.9,53.2,38.5,24.0,99,96,85,30.24,29.87,3,0,10,0.01
2013-3-11,27.9,27.9,27.9,24.0,24.0,24.0,85,85,85,30.24,30.24,0,0,0,0.00
2013-3-12,53.6,42.0,26.8,32.1,25.7,20.8,78,54,29,30.06,29.52,4,1,12,0.86
2013-3-13,46.2,35.9,22.1,28.3,22.6,18.5,87,61,34,30.20,30.02,4,0,7,0.00
2013-3-14,73.6,51.7,34.9,45.6,34.0,23.4,72,53,31,30.01,29.76,5,1,12,0.00
2013-3-15,84.9,57.9,34.2,50.7,41.3,31.8,92,61,16,29.80,29.37,5,1,14,0.00
2013-3-16,59.2,44.9,37.9,46.3,36.4,29.7,87,73,59,29.78,29.41,3,1,16,0.00
2013-3-17,37.9,34.8,32.9,33.8,30.9,26.9,97,86,71,29.78,29.47,7,2,14,0.12
2013-3-18,57.6,45.3,33.4,40.4,31.1,20.2,99,63,27,29.79,29.46,3,1,8,0.00
2013-3-19,38.7,32.3,27.3,36.5,26.8,19.0,98,81,53,29.97,29.77,2,0,7,0.09
2013-3-20,43.7,32.7,24.6,31.8,18.3,10.3,99,59,29,30.12,29.84,4,0,8,0.00
2013-3-21,29.8,27.4,22.8,28.1,20.2,11.2,95,75,50,29.84,29.62,8,2,17,0.00
2013-3-22,34.0,31.7,29.7,32.3,30.0,27.9,98,93,90,29.71,29.66,3,0,8,0.01
2013-3-23,47.3,34.1,25.3,32.8,30.1,19.4,99,88,46,30.14,29.81,4,1,10,1.09
2013-3-24,36.1,30.0,23.2,32.3,26.6,18.0,99,87,74,30.09,29.84,2,0,8,0.06
2013-3-25,37.6,30.4,21.7,27.7,23.8,16.7,90,77,63,30.32,30.07,2,0,7,0.13
2013-3-26,47.3,35.9,24.4,29.1,23.2,19.7,82,61,43,29.91,29.31,4,1,9,1.37
2013-3-27,52.9,38.3,24.1,34.4,27.0,19.7,87,66,39,29.82,29.69,7,1,17,0.00
2013-3-28,66.6,53.5,35.2,43.4,37.6,30.8,86,57,35,29.73,29.62,4,1,11,0.00
2013-3-29,71.8,58.1,42.6,47.6,41.1,34.5,87,57,26,29.72,29.59,5,1,12,0.00
2013-3-30,71.4,58.0,51.6,58.0,50.7,45.5,92,77,51,29.59,29.36,4,1,11,0.02
2013-3-31,70.5,56.7,42.6,51.8,41.6,30.3,94,61,28,29.50,29.43,3,0,10,0.00
2013-4-1,52.2,44.2,32.4,35.6,24.7,15.6,83,49,25,29.80,29.50,4,1,13,0.00
2013-4-2,53.8,39.8,29.1,25.2,21.7,18.3,71,50,27,29.85,29.74,5,1,14,0.00
2013-4-3,53.1,41.4,29.8,27.8,24.9,20.9,83,55,30,29.86,29.73,5,1,14,0.00
2013-4-4,68.5,52.5,36.0,34.2,30.0,23.0,70,45,22,29.75,29.56,4,0,10,0.00
2013-4-5,71.8,55.1,34.3,43.9,37.8,30.3,87,56,30,29.68,29.36,7,2,17,0.00
2013-4-6,81.0,63.5,54.0,52.0,44.5,39.4,67,51,25,29.37,29.17,8,3,19,0.00
2013-4-7,73.8,59.4,43.2,60.0,48.5,39.4,98,70,39,29.38,29.16,6,1,17,0.52
2013-4-8,73.6,65.0,54.5,63.6,60.0,54.2,99,85,69,29.24,29.18,5,1,12,0.33
2013-4-9,74.7,67.8,52.2,64.4,60.9,49.3,90,79,67,29.30,29.14,5,2,14,0.00
2013-4-10,50.9,42.2,36.5,48.7,41.6,36.2,99,98,92,29.46,29.25,4,1,17,1.19
2013-4-11,45.1,38.1,34.2,36.2,30.9,27.4,99,76,58,29.34,29.24,4,1,11,0.00
2013-4-12,57.2,40.9,31.6,36.4,31.3,27.5,87,70,41,29.54,29.29,3,1,8,0.00
2013-4-13,68.0,51.6,32.0,47.4,39.5,29.6,95,66,41,29.57,29.21,8,2,17,0.00
2013-4-14,74.8,63.9,55.2,57.1,49.0,35.9,74,59,45,29.25,29.00,12,3,29,0.00
2013-4-15,52.9,48.3,43.5,46.6,38.4,33.4,95,70,53,29.51,29.26,2,0,8,0.14
2013-4-16,48.2,45.1,41.9,38.2,34.8,31.8,74,67,54,29.65,29.51,7,2,17,0.00
2013-4-17,52.0,48.5,46.2,51.7,46.4,38.4,99,93,74,29.59,29.14,8,1,15,0.37
2013-4-18,46.4,40.4,36.9,46.1,36.6,27.7,99,87,67,29.46,29.10,3,1,11,0.20
2013-4-19,56.5,43.9,32.4,32.6,28.4,24.0,81,57,29,29.61,29.43,3,1,11,0.00
2013-4-20,59.5,46.1,28.0,36.9,30.6,25.4,93,58,34,29.75,29.61,8,2,16,0.00
2013-4-21,69.1,57.7,48.9,46.5,40.7,33.7,75,54,37,29.72,29.60,8,3,19,0.00
2013-4-22,66.9,57.2,45.7,51.7,45.0,40.5,92,65,43,29.64,29.41,4,2,12,0.04
2013-4-23,45.5,36.7,33.4,43.3,35.2,33.1,99,94,81,29.70,29.53,2,1,11,0.73
2013-4-24,59.9,44.8,28.0,36.2,31.9,25.5,96,64,33,29.78,29.66,5,1,11,0.00
2013-4-25,72.5,54.6,32.7,44.2,37.6,30.4,93,58,28,29.81,29.64,6,1,13,0.00
2013-4-26,58.6,52.5,49.3,50.7,47.5,39.8,99,84,56,29.73,29.64,8,2,20,0.44
2013-4-27,55.6,51.1,46.4,51.6,49.6,45.6,99,94,84,29.70,29.51,3,0,9,0.59
2013-4-28,77.7,59.9,38.8,59.3,51.0,38.6,99,76,43,29.52,29.28,8,1,14,0.00
2013-4-29,85.8,72.3,57.7,65.9,59.9,53.3,86,66,47,29.32,29.13,8,3,18,0.00
2013-4-30,85.8,75.4,65.7,59.0,55.6,50.8,71,52,35,29.33,29.16,8,4,21,0.00
2013-5-1,82.9,66.7,42.1,64.2,54.0,40.5,95,65,48,29.70,29.32,4,1,13,0.00
2013-5-2,42.1,38.0,34.3,40.5,37.1,33.6,99,96,93,29.91,29.70,4,1,13,0.00
2013-5-3,41.7,38.7,35.6,38.3,36.5,34.7,99,92,77,29.83,29.42,3,1,8,0.00
2013-5-4,50.9,42.8,33.4,47.0,41.2,32.9,99,94,81,29.54,29.35,2,0,9,0.01
2013-5-5,59.5,50.6,45.3,52.2,48.1,44.8,99,91,75,29.64,29.53,2,0,6,0.00
2013-5-6,51.6,51.4,51.4,49.7,49.4,49.2,93,93,92,29.60,29.59,1,0,4,0.00
2013-5-7,34.9,28.3,21.7,25.4,22.4,18.5,87,79,66,30.35,30.22,2,0,5,0.01
2013-5-8,40.1,29.1,21.6,23.9,20.3,17.7,88,70,48,30.40,30.22,2,0,4,0.00
2013-5-9,67.1,53.2,25.3,64.7,48.1,19.4,97,84,46,30.21,29.84,4,1,9,0.00
2013-5-10,71.1,59.2,51.3,57.6,53.6,47.8,99,83,56,30.09,29.96,3,0,10,0.00
2013-5-11,71.1,58.3,46.0,54.4,39.3,26.5,99,56,22,30.29,30.08,3,1,11,0.01
2013-5-12,72.1,55.1,34.7,43.9,35.1,24.0,90,52,20,30.32,30.16,4,0,8,0.00
2013-5-13,81.5,64.5,44.2,58.2,49.5,41.5,93,62,37,30.19,29.97,6,1,13,0.00
2013-5-14,96.1,78.9,62.4,57.8,52.8,43.9,81,46,17,29.97,29.83,8,2,17,0.00
2013-5-15,90.1,76.8,65.5,68.7,61.6,55.6,89,61,42,29.93,29.84,6,2,14,0.00
2013-5-16,83.8,72.0,60.3,66.6,62.5,58.8,97,74,48,29.93,29.83,4,1,11,0.00
2013-5-17,79.7,68.3,59.2,65.8,61.8,58.1,98,81,56,29.98,29.88,4,0,9,0.00
2013-5-18,87.1,75.0,60.4,72.9,67.1,59.1,97,78,56,29.96,29.76,7,2,14,0.00
2013-5-19,86.4,71.4,62.1,73.1,65.7,60.9,99,83,60,29.89,29.59,10,2,18,0.50
2013-5-20,82.8,70.3,61.5,70.0,64.3,59.7,99,82,61,29.79,29.65,6,2,13,0.00
2013-5-21,81.5,68.6,57.2,59.9,54.5,50.8,84,62,38,29.82,29.72,4,1,13,0.00
2013-5-22,71.1,63.1,54.3,55.2,52.8,50.1,86,70,54,29.99,29.78,4,1,8,0.00
2013-5-23,73.0,62.9,52.0,57.2,53.7,49.0,91,73,57,30.22,29.99,4,0,8,0.00
2013-5-24,37.9,33.0,29.3,31.1,29.0,26.4,98,86,68,30.17,29.97,2,0,5,0.20
2013-5-25,34.3,32.3,28.9,28.5,26.4,24.4,84,79,70,30.35,30.18,2,1,5,0.04
2013-5-26,34.9,29.4,23.9,25.8,23.4,18.6,83,78,66,30.44,30.33,2,0,5,0.01
2013-5-27,40.1,28.4,21.6,23.9,20.0,17.7,88,72,48,30.51,30.37,2,0,4,0.00
2013-5-28,74.1,49.2,25.3,69.9,40.9,19.4,88,74,46,30.36,29.91,4,1,9,0.00
2013-5-29,81.9,76.1,66.4,70.7,67.7,63.7,91,75,66,29.95,29.78,9,3,21,0.05
2013-5-30,76.6,66.3,62.1,68.8,64.0,61.7,99,93,74,29.90,29.75,6,1,16,0.94
2013-5-31,80.8,67.7,59.2,70.2,64.9,58.5,99,91,67,29.90,29.79,4,1,11,0.73
2013-6-1,73.6,67.2,60.8,67.8,58.3,52.0,99,74,51,30.14,29.84,4,1,9,0.00
2013-6-2,72.5,60.4,50.5,54.8,52.2,48.0,91,75,51,30.25,30.13,3,0,8,0.00
2013-6-3,77.7,62.9,45.1,59.6,53.2,44.5,99,73,48,30.22,30.02,4,1,13,0.00
2013-6-4,79.9,68.4,62.8,67.5,62.5,57.9,94,81,63,30.11,30.01,5,1,13,0.07
2013-6-5,71.4,65.3,62.4,67.2,63.6,61.0,98,94,84,30.13,30.05,2,0,8,0.09
2013-6-6,80.4,68.6,56.3,63.1,58.2,54.3,99,72,45,30.12,30.06,2,0,10,0.00
2013-6-7,82.4,66.3,52.9,61.8,55.3,47.4,99,71,31,30.17,30.05,3,0,9,0.00
2013-6-8,83.7,69.6,52.7,63.2,58.4,51.0,97,70,47,30.09,29.89,8,2,15,0.37
2013-6-9,86.5,72.4,63.0,67.2,61.6,46.2,99,73,33,30.00,29.90,97,1,10,0.22
2013-6-10,94.6,75.9,59.2,67.4,62.2,56.4,98,66,28,30.05,29.95,3,0,6,0.00
2013-6-11,97.7,83.7,72.5,71.6,68.2,61.7,89,63,31,30.03,29.92,6,2,17,0.00
2013-6-12,98.4,86.4,77.4,74.5,71.3,62.2,78,62,40,30.08,29.89,6,2,17,0.01
2013-6-13,91.2,76.3,62.6,66.7,62.4,56.2,88,63,39,30.20,30.08,4,0,11,0.00
2013-6-14,93.2,79.4,65.1,77.3,70.2,63.4,96,75,53,30.15,29.99,5,1,12,0.00
2013-6-15,79.3,78.7,78.4,73.3,72.5,72.2,83,81,80,30.06,30.03,4,2,9,0.00
2013-6-17,37.2,33.8,30.0,33.7,28.9,25.1,99,83,71,30.04,29.76,2,1,8,0.08
2013-6-18,36.5,33.0,31.3,35.5,32.0,30.3,99,96,88,29.94,29.68,1,0,5,0.12
2013-6-19,37.9,33.3,29.3,30.3,28.4,25.2,98,83,68,30.14,29.93,2,0,5,0.19
2013-6-20,34.2,31.7,28.9,28.5,26.2,24.1,84,80,74,30.29,30.14,2,0,5,0.04
2013-6-21,34.9,28.3,21.7,25.4,22.4,18.5,87,79,66,30.40,30.26,2,0,5,0.01
2013-6-22,40.1,29.1,21.6,23.9,20.3,17.7,88,70,48,30.44,30.26,2,0,4,0.00
2013-6-23,89.8,68.1,25.3,74.1,55.7,19.4,80,65,46,30.25,29.89,4,1,9,0.00
2013-6-24,96.4,83.8,76.5,75.7,70.7,66.9,81,66,49,30.02,29.86,0,0,0,0.00
2013-6-25,89.8,81.7,73.8,76.3,72.1,69.3,97,73,57,29.97,29.80,0,0,0,0.00
2013-6-26,105.1,86.2,75.2,79.4,70.6,59.7,88,64,27,29.96,29.80,0,0,0,0.00
2013-6-27,88.3,77.9,70.3,79.7,71.6,67.7,98,82,65,30.08,29.90,0,0,0,0.00
2013-6-28,93.2,77.6,67.8,85.2,66.5,57.4,99,73,40,30.03,29.95,0,0,0,0.00
2013-6-29,96.3,76.1,64.4,65.7,59.3,54.6,81,59,31,29.97,29.89,0,0,0,0.00
2013-6-30,87.4,72.3,61.5,64.8,59.0,56.7,85,65,42,30.12,29.97,0,0,0,0.00
2013-7-1,93.2,72.4,58.5,63.3,55.3,50.1,87,59,27,30.20,30.11,0,0,0,0.00
2013-7-2,94.1,72.3,56.3,62.6,55.5,49.0,93,61,28,30.22,30.11,0,0,0,0.00
2013-7-3,94.3,71.5,58.1,62.0,57.9,51.5,97,68,29,30.17,30.05,0,0,0,0.00
2013-7-4,92.1,74.0,56.7,67.8,59.2,54.5,99,66,32,30.12,30.01,0,0,0,0.00
2013-7-5,94.3,80.4,66.2,67.6,62.1,59.2,78,56,36,30.07,29.95,0,0,0,0.00
2013-7-6,90.3,77.6,70.3,70.1,64.6,61.5,75,65,45,30.06,29.96,0,0,0,0.00
2013-7-7,93.6,83.6,73.2,72.4,68.3,65.8,82,61,46,30.05,29.98,0,0,0,0.00
2013-7-8,98.8,84.7,77.0,72.9,68.9,65.9,73,60,39,30.10,30.02,0,0,0,0.00
2013-7-9,103.8,88.7,78.1,78.4,72.7,69.1,79,61,38,30.08,29.91,0,0,0,0.00
2013-7-10,98.1,85.1,75.2,76.1,68.9,62.9,77,60,32,30.11,29.96,0,0,0,0.00
2013-7-11,97.7,79.4,68.0,65.8,61.9,57.9,88,59,30,30.17,30.04,0,0,0,0.00
2013-7-12,95.5,80.6,69.6,69.9,64.4,59.6,77,59,38,30.13,30.03,0,0,0,0.00
2013-7-13,95.5,81.8,71.1,71.7,64.9,58.7,67,57,39,30.11,30.01,0,0,0,0.00
2013-7-14,98.1,80.0,66.9,65.3,62.0,56.5,85,57,31,30.19,30.07,0,0,0,0.00
2013-7-15,103.8,81.0,70.3,73.9,67.2,61.8,88,65,35,30.26,30.16,0,0,0,0.00
2013-7-16,105.1,84.0,70.7,76.1,69.3,66.8,91,64,37,30.34,30.25,0,0,0,0.00
2013-7-17,106.2,85.5,72.9,75.6,70.7,68.0,90,64,37,30.39,30.25,0,0,0,0.00
2013-7-18,109.0,86.3,71.1,75.3,69.2,64.8,92,61,30,30.28,30.06,0,0,0,0.00
2013-7-19,111.4,86.9,70.2,72.8,67.8,64.5,89,57,27,30.08,29.92,0,0,0,0.00
2013-7-20,88.7,76.8,70.3,78.2,71.9,68.7,99,86,60,30.02,29.93,0,0,0,0.00
2013-7-21,90.0,78.1,70.5,74.3,71.8,70.2,99,83,56,30.01,29.87,0,0,0,0.00
2013-7-22,95.9,82.5,70.7,79.9,72.2,69.2,98,74,45,29.94,29.84,0,0,0,0.00
2013-7-23,87.8,79.5,72.5,75.9,71.4,65.7,96,77,58,30.01,29.89,0,0,0,0.00
2013-7-24,90.3,78.4,67.8,69.9,62.1,59.8,80,60,37,30.13,30.00,0,0,0,0.00
2013-7-25,88.9,75.2,66.4,71.3,66.5,62.0,93,76,49,30.17,30.07,0,0,0,0.00
2013-7-26,87.3,76.2,68.7,75.1,67.5,55.6,99,77,47,30.14,30.05,0,0,0,0.00
2013-7-27,80.8,68.6,56.8,59.9,56.3,52.5,92,67,38,30.20,30.06,0,0,0,0.00
2013-7-28,77.2,68.0,58.6,59.8,57.1,54.2,95,71,46,30.15,30.09,0,0,2,0.00
2013-7-29,71.1,66.5,61.2,70.8,64.6,58.2,99,94,74,30.16,30.03,1,0,4,0.76
2013-7-30,80.4,74.9,71.1,78.0,73.6,70.8,99,96,85,30.14,30.03,0,0,2,0.04
2013-7-31,86.4,77.3,70.9,74.9,70.3,67.7,99,81,56,30.20,30.10,0,0,3,0.00
2013-8-1,89.8,78.2,65.1,74.6,68.5,64.7,99,75,47,30.19,30.02,1,0,3,0.00
2013-8-2,85.6,75.7,65.5,77.7,72.2,65.2,99,89,75,30.07,29.92,1,0,2,0.39
2013-8-3,86.5,78.5,72.7,75.0,73.4,71.6,99,85,66,30.20,29.98,1,0,3,0.04
2013-8-4,77.0,72.1,68.4,73.5,69.4,64.2,99,91,74,30.23,30.09,0,0,3,0.08
2013-8-5,84.0,76.6,70.5,76.8,73.8,70.3,99,91,76,30.12,29.89,0,0,3,0.00
2013-8-6,87.8,79.0,70.7,79.0,75.0,70.4,99,88,66,29.96,29.86,2,0,8,0.65
2013-8-7,84.9,78.1,71.6,81.6,74.7,68.5,99,89,78,30.03,29.86,1,0,4,0.44
2013-8-8,73.4,71.7,69.6,70.0,68.1,66.4,95,88,82,30.09,29.95,0,0,4,0.00
2013-8-9,76.1,72.0,66.7,72.0,68.8,65.6,97,90,79,30.19,30.06,0,0,2,0.00
2013-8-10,85.8,73.9,64.0,70.2,65.5,63.2,99,78,51,30.27,30.15,1,0,4,0.00
2013-8-11,88.9,75.3,61.5,71.0,66.9,61.0,99,77,53,30.21,30.08,1,0,4,0.00
2013-8-12,83.7,74.3,66.2,73.3,70.4,65.9,99,88,68,30.12,30.03,1,0,9,0.39
2013-8-13,81.5,73.0,67.1,68.8,65.9,61.5,99,80,51,30.20,30.10,0,0,4,0.00
2013-8-14,80.1,70.7,63.1,66.4,62.0,58.2,94,75,54,30.27,30.15,1,0,4,0.00
2013-8-15,75.7,67.6,64.6,66.0,60.4,57.8,93,78,62,30.19,30.09,0,0,3,0.00
2013-8-16,78.8,69.9,62.4,62.1,59.7,57.9,87,71,53,30.24,30.14,2,0,4,0.00
2013-8-17,81.3,68.2,55.9,65.4,58.6,55.0,99,74,48,30.28,30.17,1,0,4,0.00
2013-8-18,83.1,70.4,57.0,68.5,61.6,56.1,99,76,50,30.25,30.13,1,0,4,0.00
2013-8-19,86.4,74.7,62.2,69.9,65.7,61.0,98,75,51,30.19,30.06,1,0,4,0.00
2013-8-20,89.6,78.5,67.5,72.0,67.8,64.5,91,72,48,30.82,30.05,1,0,4,0.00
2013-8-21,91.9,79.9,68.4,72.7,69.3,64.9,89,72,48,30.15,30.06,2,0,4,0.00
2013-8-22,91.0,80.0,69.8,74.3,71.6,67.7,96,77,50,30.18,30.07,1,0,3,0.00
2013-8-23,92.7,81.1,70.0,77.2,70.5,67.3,99,74,44,30.17,30.07,2,0,4,0.00
2013-8-24,92.7,83.0,73.9,76.8,72.4,69.8,90,71,53,30.20,30.11,2,0,5,0.01
2013-8-25,94.5,83.7,74.3,75.8,72.4,69.9,87,70,50,30.28,30.17,0,0,4,0.00
2013-8-26,95.4,85.8,73.0,74.9,72.4,70.3,92,67,47,30.24,30.12,0,0,1,0.00
2013-8-27,95.0,83.8,73.0,71.8,68.6,63.7,86,62,38,30.15,30.04,0,0,1,0.00
2013-8-28,93.7,81.4,68.2,75.4,70.5,65.7,95,71,49,30.12,30.06,0,0,4,0.00
2013-8-29,97.5,86.0,75.9,75.7,72.7,69.7,88,67,42,30.11,30.01,0,0,2,0.02
2013-8-30,101.1,87.4,73.2,76.0,71.3,66.5,90,62,33,30.04,29.89,0,0,0,0.00
2013-8-31,92.1,83.5,75.9,78.7,73.7,69.9,87,73,49,29.96,29.85,0,0,0,0.00
2013-9-1,87.1,77.1,68.9,77.3,71.1,64.3,99,83,59,30.05,29.83,0,0,0,0.00
2013-9-2,83.1,72.6,63.1,67.3,63.3,60.9,95,74,52,30.14,30.04,0,0,0,0.00
2013-9-3,87.6,71.7,57.4,67.5,60.5,56.0,98,71,39,30.19,30.08,0,0,0,0.00
2013-9-4,86.0,73.1,59.7,71.4,63.5,58.3,98,74,48,30.25,30.13,0,0,0,0.00
2013-9-5,91.4,75.7,61.9,72.6,64.6,60.3,98,72,43,30.28,30.17,0,0,0,0.00
2013-9-6,92.8,79.1,67.3,70.5,66.7,63.3,90,68,45,30.21,30.05,0,0,0,0.00
2013-9-7,100.2,84.0,70.2,71.9,69.0,65.1,84,63,39,30.07,29.94,0,0,0,0.00
2013-9-8,103.8,87.6,73.4,74.2,69.9,67.3,83,58,33,29.98,29.87,0,0,0,0.00
2013-9-9,100.0,85.5,75.0,70.7,66.2,60.6,77,55,31,30.02,29.93,0,0,0,0.00
2013-9-10,98.4,84.1,73.2,70.5,66.5,64.4,76,57,36,30.14,30.02,0,0,0,0.00
2013-9-11,98.8,81.8,67.5,69.3,64.6,60.6,88,59,30,30.21,30.08,0,0,0,0.00
2013-9-12,88.7,77.7,70.7,73.9,66.7,51.7,95,71,47,30.22,30.13,0,0,0,0.00
2013-9-13,78.6,68.6,57.6,57.1,51.6,49.0,82,56,37,30.26,30.13,0,0,0,0.00
2013-9-14,82.0,67.5,52.3,55.8,52.4,48.1,87,62,35,30.18,30.02,0,0,0,0.00
2013-9-15,87.4,73.2,65.1,69.9,62.1,54.9,92,69,54,30.22,30.00,0,0,0,0.00
2013-9-16,65.1,61.1,59.7,63.2,60.5,59.5,99,98,93,30.33,30.22,0,0,0,0.00
2013-9-17,73.0,66.5,61.5,71.5,65.9,61.3,99,98,90,30.26,30.03,0,0,0,0.00
2013-9-18,93.4,77.7,68.4,74.9,71.1,68.1,99,82,53,30.05,29.88,0,0,0,0.00
2013-9-19,86.7,74.2,60.4,73.0,69.0,59.9,99,85,62,30.35,29.92,0,0,0,0.00
2013-9-20,71.4,62.6,54.3,67.4,57.0,52.1,99,84,55,30.17,30.01,0,0,0,0.00
2013-9-21,80.8,61.1,48.4,58.5,52.3,48.1,99,76,37,30.15,30.00,0,0,0,0.00
2013-9-22,82.4,63.9,50.5,58.1,53.4,49.4,99,72,41,30.09,29.95,0,0,0,0.00
2013-9-23,81.7,66.2,54.9,58.3,55.0,51.6,89,69,42,30.03,29.86,0,0,0,0.00
2013-9-24,70.0,65.8,61.0,62.5,59.4,56.3,94,80,68,29.96,29.84,0,0,0,0.00
2013-9-25,82.2,66.9,55.4,67.3,61.6,55.1,99,84,59,30.00,29.90,0,0,0,0.00
2013-9-26,88.2,73.3,61.9,65.5,62.0,59.5,94,71,41,30.01,29.92,0,0,0,0.00
2013-9-27,89.2,77.1,70.0,67.4,63.7,62.2,79,65,42,30.06,29.93,0,0,0,0.00
2013-9-28,74.8,65.3,53.1,67.9,61.3,52.8,99,88,67,30.18,29.89,0,0,0,0.00
2013-9-29,75.9,59.1,45.5,61.6,52.5,45.2,99,82,48,30.21,30.04,0,0,0,0.00
2013-9-30,81.3,63.3,47.8,62.3,56.1,47.0,99,80,48,30.06,29.90,0,0,0,0.00
2013-10-1,84.0,69.2,57.4,70.2,63.8,55.4,99,84,61,30.06,29.94,0,0,0,0.00
2013-10-2,83.5,71.9,61.5,74.6,67.9,60.9,99,88,66,30.10,29.96,0,0,0,0.00
2013-10-3,85.8,74.8,63.9,75.5,69.7,62.8,99,85,65,30.01,29.82,0,0,0,0.00
2013-10-4,88.9,77.6,64.0,73.5,69.6,62.9,97,78,54,30.00,29.80,0,0,0,0.00
2013-10-5,63.3,54.8,48.0,61.9,44.0,39.2,95,68,48,30.14,30.01,0,0,0,0.00
2013-10-6,63.0,53.1,44.8,47.6,42.9,37.2,84,69,54,30.11,29.95,0,0,0,0.00
2013-10-7,77.9,56.4,41.9,52.5,46.3,39.2,93,72,40,30.25,30.10,0,0,0,0.00
2013-10-8,80.8,62.9,51.3,54.2,49.1,46.1,84,64,34,30.20,30.09,0,0,0,0.00
2013-10-9,80.4,64.3,52.5,54.8,50.7,47.7,85,64,36,30.19,30.09,0,0,0,0.00
2013-10-10,82.2,66.1,51.8,61.0,54.6,47.9,90,68,47,30.16,29.95,0,0,0,0.00
2013-10-11,76.6,67.9,60.6,66.5,60.7,55.7,86,78,70,29.97,29.85,0,0,0,0.00
2013-10-12,71.8,60.0,48.7,59.1,46.5,42.4,86,63,37,30.34,29.95,0,0,0,0.00
2013-10-13,71.6,56.1,41.9,50.4,42.5,40.2,97,66,32,30.49,30.35,0,0,0,0.00
2013-10-14,68.5,61.7,53.4,61.9,54.5,39.3,95,79,50,30.37,29.95,0,0,0,0.00
2013-10-15,62.8,55.1,46.6,60.7,48.1,40.1,99,79,54,30.18,29.97,0,0,0,0.00
2013-10-16,60.6,51.4,44.6,47.0,42.9,39.2,89,73,56,30.21,30.08,0,0,2,0.07
2013-10-17,70.0,53.7,38.1,49.3,43.2,35.2,99,71,31,30.13,29.99,4,1,9,0.00
2013-10-18,47.3,41.0,37.4,41.8,38.7,36.7,99,92,73,30.25,30.13,2,0,7,0.22
2013-10-19,63.5,47.3,33.3,45.2,38.9,33.0,99,76,41,30.20,29.98,4,1,11,0.00
2013-10-20,73.0,56.5,42.1,49.3,44.4,39.6,93,67,37,30.03,29.88,6,1,13,0.00
2013-10-21,63.0,49.8,41.9,47.4,38.4,33.1,86,67,35,30.23,30.04,2,0,6,0.00
2013-10-22,66.4,52.0,39.6,49.3,41.3,34.5,83,68,48,30.21,30.01,4,1,11,0.00
2013-10-23,54.5,43.8,32.9,41.3,35.8,31.6,96,75,50,30.27,30.13,3,0,8,0.00
2013-10-24,42.6,41.1,39.7,38.3,37.4,36.5,90,87,82,30.42,30.26,1,0,5,0.00
2013-10-25,87.4,69.4,59.7,69.5,63.8,59.4,99,84,55,30.02,29.74,0,0,0,0.00
2013-10-26,71.1,55.7,36.0,61.1,38.2,31.3,99,55,31,30.03,29.89,2,0,5,0.30
2013-10-27,64.6,45.9,28.8,38.7,32.5,27.3,97,65,30,29.95,29.71,5,1,11,0.00
2013-10-28,70.0,50.5,34.3,55.4,44.2,31.4,97,80,56,29.91,29.76,4,1,10,0.00
2013-10-29,66.6,58.5,50.0,66.3,58.0,49.7,99,98,88,29.88,29.70,4,1,11,1.43
2013-10-30,71.1,67.1,60.4,69.4,66.3,60.2,99,97,83,29.73,29.47,8,2,17,0.78
2013-10-31,59.9,51.7,45.0,59.6,50.2,44.1,99,95,79,29.53,29.35,2,0,7,0.84
2013-11-1,64.9,51.3,39.2,49.3,42.8,38.4,99,75,50,29.77,29.44,3,0,9,0.00
2013-11-2,61.9,48.2,37.8,44.4,38.6,34.8,89,71,43,29.99,29.77,2,0,7,0.00
2013-11-3,60.6,49.9,35.6,42.7,38.3,33.8,95,67,44,29.94,29.67,8,3,19,0.00
2013-11-4,61.5,56.9,50.0,53.7,49.2,42.8,90,75,62,29.87,29.65,7,2,17,0.07
2013-11-5,61.2,57.4,45.9,60.9,56.9,45.6,99,98,87,29.87,29.62,6,2,13,0.66
2013-11-6,46.9,40.3,31.8,45.2,37.4,31.0,99,90,70,30.11,29.72,2,0,8,0.08
2013-11-7,61.9,41.8,29.8,43.6,34.4,29.6,99,78,43,30.18,30.09,4,0,7,0.00
2013-11-8,65.5,51.1,31.5,41.5,36.0,30.4,97,60,33,30.10,29.65,10,3,24,0.00
2013-11-9,72.3,52.0,38.1,45.7,38.9,35.5,93,64,33,30.08,29.75,2,0,5,0.00
2013-11-10,62.4,50.3,37.4,42.1,36.7,30.2,88,62,31,30.19,29.98,5,0,9,0.00
2013-11-11,68.0,47.2,29.1,54.4,40.5,19.2,95,78,61,30.42,29.93,3,0,9,0.00
2013-11-12,41.9,28.0,17.6,22.4,17.0,13.5,86,65,40,30.65,30.42,2,0,7,0.00
2013-11-13,49.5,35.5,19.6,25.6,19.5,14.7,83,55,29,30.45,29.94,8,2,16,0.00
2013-11-14,54.9,44.9,36.7,32.3,29.1,25.4,67,55,38,29.94,29.73,8,3,17,0.00
2013-11-15,60.4,50.5,35.1,48.2,40.2,29.8,87,68,53,29.75,29.50,5,1,13,0.00
2013-11-16,70.9,63.9,52.0,62.3,57.7,48.2,91,81,67,29.52,29.19,12,5,27,0.00
2013-11-17,70.2,61.3,45.3,62.8,41.7,13.9,87,54,13,29.86,29.11,8,2,25,0.00
2013-11-18,64.4,46.0,33.4,39.1,32.7,25.6,94,63,30,30.08,29.86,1,0,4,0.00
2013-11-19,62.1,50.7,35.6,32.4,28.6,21.1,76,46,22,30.02,29.75,7,2,17,0.00
2013-11-20,52.5,48.9,43.5,41.7,34.6,20.4,78,60,29,29.75,29.63,6,2,14,0.02
2013-11-21,51.4,42.2,28.9,47.5,39.0,27.2,99,89,71,30.22,29.73,2,0,5,0.08
2013-11-22,38.3,28.2,25.2,29.7,24.3,21.0,94,85,69,30.40,30.21,2,0,5,0.00
2013-11-23,34.7,24.3,15.6,21.0,15.6,9.1,84,70,44,30.55,30.37,2,0,8,0.00
2013-11-24,29.1,21.7,12.4,16.4,11.1,8.2,84,64,44,30.52,30.10,1,0,5,0.00
2013-11-25,40.1,32.0,24.3,23.9,20.6,15.8,86,63,49,30.10,29.94,5,0,8,0.00
2013-11-26,42.6,29.8,20.5,30.8,21.1,11.7,95,71,44,30.19,29.93,4,1,9,0.00
2013-11-27,38.7,26.6,14.4,18.2,13.0,9.1,82,58,35,30.22,29.94,4,1,11,0.00
2013-11-28,52.2,33.0,21.9,28.2,20.9,16.0,82,62,37,30.26,29.92,3,0,9,0.00
2013-11-29,52.5,36.0,20.5,31.8,24.7,17.2,89,66,41,30.26,30.00,4,1,10,0.00
2013-11-30,56.5,42.0,28.9,40.2,32.7,25.1,93,71,49,30.00,29.85,6,1,11,0.00
2013-12-1,60.4,40.2,24.4,42.4,33.3,23.2,96,79,48,29.90,29.65,2,0,4,0.00
2013-12-2,55.6,42.9,32.9,45.6,39.8,31.1,99,90,68,29.65,29.38,4,1,16,0.00
2013-12-3,60.8,45.8,7.0,49.0,42.2,-37.9,99,89,10,29.39,29.30,4,1,10,0.00
2013-12-4,42.1,34.1,23.5,41.4,31.4,14.9,99,90,69,29.84,29.29,2,0,8,0.01
2013-12-5,23.4,19.1,16.2,17.2,12.5,9.1,91,75,65,30.08,29.84,2,1,8,0.00
2013-12-6,61.9,27.7,8.8,61.2,21.2,0.8,99,76,57,30.00,29.50,1,0,3,4.29
2013-12-7,24.4,15.1,3.4,7.7,3.0,-1.6,80,59,44,30.07,29.71,6,1,13,0.00
2013-12-8,61.9,23.5,18.7,61.1,18.9,6.1,98,83,53,30.03,29.54,4,1,11,4.29
2013-12-9,19.4,12.8,8.6,18.0,7.3,3.1,94,79,62,30.22,29.97,2,0,5,0.00
2013-12-10,42.3,25.0,10.0,20.3,14.0,4.6,81,64,38,30.14,29.98,4,1,8,0.01
2013-12-11,37.0,22.1,9.1,21.9,12.1,2.9,90,67,39,30.42,30.02,2,0,8,0.00
2013-12-12,46.4,29.4,9.3,25.4,15.5,3.7,79,58,34,30.40,29.97,5,2,13,0.00
2013-12-13,38.5,33.7,24.1,37.1,31.9,21.3,99,93,79,29.96,29.65,4,0,9,0.08
2013-12-14,35.1,27.2,18.1,34.8,24.8,16.0,99,91,80,30.03,29.69,2,0,4,0.01
2013-12-15,50.7,34.5,16.0,34.7,26.0,14.4,95,73,53,30.03,29.76,4,0,9,0.00
2013-12-16,59.7,40.8,26.6,36.0,28.9,23.0,87,65,35,29.96,29.76,4,0,8,0.00
2013-12-17,56.7,34.5,22.1,35.9,25.5,19.9,96,73,37,30.10,29.96,2,0,7,0.00
2013-12-18,63.3,47.1,24.3,40.3,32.2,19.6,85,58,36,30.03,29.58,8,3,21,0.00
2013-12-19,58.5,54.1,43.0,53.4,47.2,38.5,91,78,56,29.58,29.44,8,2,18,0.00
2013-12-20,42.8,25.7,21.2,38.6,23.7,19.0,99,92,85,29.77,29.51,2,0,6,0.00
2013-12-21,28.8,25.3,22.5,28.5,23.8,19.7,99,94,89,29.71,29.42,2,0,8,0.00
2013-12-22,28.4,21.0,7.9,24.6,18.7,6.4,99,91,78,30.18,29.54,2,0,4,0.00
2013-12-23,19.8,9.2,1.8,11.8,5.0,-1.1,93,83,66,30.43,30.17,1,0,4,0.00
2013-12-24,31.3,18.5,0.1,29.5,14.1,-2.7,95,83,61,30.39,29.99,6,1,17,0.00
2013-12-25,42.3,32.0,21.9,31.8,27.7,21.0,99,85,61,30.15,30.04,3,0,6,0.19
2013-12-26,47.5,33.3,19.0,33.8,26.8,18.4,99,79,51,30.14,29.97,6,1,16,0.01
2013-12-27,78.1,67.3,56.8,56.3,51.7,49.0,82,59,38,29.91,29.77,0,0,0,0.00
2013-12-28,81.7,68.6,52.3,55.9,52.7,48.2,87,60,36,29.83,29.67,0,0,0,0.00
2013-12-29,87.4,72.4,61.9,69.5,62.7,55.7,99,73,55,29.88,29.65,0,0,0,0.00
2013-12-30,61.9,36.8,21.7,61.2,30.6,13.7,99,78,55,30.01,29.88,2,0,4,4.59
2013-12-31,52.3,33.9,15.3,29.5,22.8,13.2,94,67,40,30.05,29.76,8,2,17,0.00
2014-1-1,39.0,21.6,8.4,25.8,16.5,4.4,90,81,58,30.06,29.75,3,1,8,0.00
2014-1-2,27.7,10.7,1.4,9.6,2.9,-3.0,84,71,41,30.21,30.05,2,0,5,0.00